Airfield :
LOGIN :

Register | Disclaimer

   EN    FR    IT 

 










Legend :    VFR   Marginal VFR   IFR   Intensive IFR   Very Intensive IFR
Visi :
Ceiling :
>= 8 km
>= 3000ft
5 to 8 km
1000 to 3000 ft
1500m to 5 km
500 to 1000 ft
800 to 1500m
200 to 500 ft
< 800m
< 200 ft
Symbols :   Thunderstorms  Fog  Heavy snow  Heavy precipitations  Wind > 20 kt
SIGMETs :     Misc.  Thunderstorms  Icing  Turbulence  Mountain Waves  Volcanic Ashes






- Airport Elevation : 256 ft
- IATA code : CFR


LFRK - Caen

CURRENT METAR :
  • 021900Z AUTO 27011KT 9999 SCT048 BKN056 17/11 Q1017 NOSIG

EXPIRED METARs :
  • 021830Z AUTO 28011KT 9999 FEW028 SCT039 BKN045 17/11 Q1017 NOSIG
  • 021800Z AUTO 29013KT 9999 BKN035 BKN042 18/12 Q1017 NOSIG
  • 021730Z AUTO 27013KT 9999 BKN039 BKN050 19/11 Q1017 NOSIG
  • 021700Z AUTO 28011KT 9999 BKN037 BKN047 OVC056 19/11 Q1016 NOSIG
  • 021630Z AUTO 27012KT 9999 SCT041 BKN047 BKN054 19/11 Q1016 NOSIG
  • 021600Z AUTO 26014KT 230V300 9999 BKN045 BKN058 BKN190 20/11 Q1016 NOSIG

TAF TAF LFRK
Valid from the 02 at 15:00 until the 03 at 00:00 UTC


021400Z 0215/0224 28013KT 9999 BKN030
TEMPO 0221/0224 BKN015
Met : +33 2 31 26 68 11



MET'MAP, your aeronautical weather chart ! - Copyright ORBIFLY December 2007 - Disclaimer

ORBIFLY MET'MAP TEAM :

Programming & Development : Alexandra Zaïnal
Concept & original design : Baudouin d'Aumeries
Assistance for programming : Marc-Olivier Méhu
Technical & hardware support : Manuel Goepfert

Contact : metmap@orbifly.com




SOURCES & CREDITS :

   NOAA